sensor_id;sensor_type;location;lat;lon;timestamp;temperature;humidity
64888;DHT22;51386;53.082;8.816;2023-08-07T00:01:21;19.10;89.60
64888;DHT22;51386;53.082;8.816;2023-08-07T00:03:48;19.00;89.90
64888;DHT22;51386;53.082;8.816;2023-08-07T00:06:15;19.00;90.00
64888;DHT22;51386;53.082;8.816;2023-08-07T00:08:42;19.00;90.10
64888;DHT22;51386;53.082;8.816;2023-08-07T00:11:11;19.00;90.20
64888;DHT22;51386;53.082;8.816;2023-08-07T00:13:38;19.00;90.20
64888;DHT22;51386;53.082;8.816;2023-08-07T00:16:05;18.90;90.40
64888;DHT22;51386;53.082;8.816;2023-08-07T00:18:32;18.90;90.50
64888;DHT22;51386;53.082;8.816;2023-08-07T00:20:59;18.90;90.70
64888;DHT22;51386;53.082;8.816;2023-08-07T00:23:27;18.90;90.90
64888;DHT22;51386;53.082;8.816;2023-08-07T00:25:54;18.80;90.90
64888;DHT22;51386;53.082;8.816;2023-08-07T00:28:22;18.90;91.10
64888;DHT22;51386;53.082;8.816;2023-08-07T00:30:49;18.80;91.10
64888;DHT22;51386;53.082;8.816;2023-08-07T00:33:16;18.80;91.20
64888;DHT22;51386;53.082;8.816;2023-08-07T00:35:44;18.80;91.30
64888;DHT22;51386;53.082;8.816;2023-08-07T00:38:11;18.80;91.30
64888;DHT22;51386;53.082;8.816;2023-08-07T00:40:38;18.80;91.30
64888;DHT22;51386;53.082;8.816;2023-08-07T00:43:06;18.80;91.40
64888;DHT22;51386;53.082;8.816;2023-08-07T00:45:40;18.90;91.40
64888;DHT22;51386;53.082;8.816;2023-08-07T00:48:09;18.80;91.40
64888;DHT22;51386;53.082;8.816;2023-08-07T00:50:37;18.80;91.50
64888;DHT22;51386;53.082;8.816;2023-08-07T00:53:13;18.80;91.50
64888;DHT22;51386;53.082;8.816;2023-08-07T00:55:41;18.80;91.50
64888;DHT22;51386;53.082;8.816;2023-08-07T00:58:09;18.80;91.50
64888;DHT22;51386;53.082;8.816;2023-08-07T01:00:38;18.80;91.50
64888;DHT22;51386;53.082;8.816;2023-08-07T01:03:05;18.80;91.90
64888;DHT22;51386;53.082;8.816;2023-08-07T01:05:34;18.80;91.50
64888;DHT22;51386;53.082;8.816;2023-08-07T01:08:01;18.80;91.50
64888;DHT22;51386;53.082;8.816;2023-08-07T01:10:46;18.80;91.50
64888;DHT22;51386;53.082;8.816;2023-08-07T01:13:29;18.80;91.50
64888;DHT22;51386;53.082;8.816;2023-08-07T01:16:05;18.80;91.50
64888;DHT22;51386;53.082;8.816;2023-08-07T01:18:38;18.80;91.40
64888;DHT22;51386;53.082;8.816;2023-08-07T01:21:17;18.70;91.40
64888;DHT22;51386;53.082;8.816;2023-08-07T01:23:47;18.70;91.40
64888;DHT22;51386;53.082;8.816;2023-08-07T01:26:14;18.70;91.40
64888;DHT22;51386;53.082;8.816;2023-08-07T01:28:46;18.70;91.40
64888;DHT22;51386;53.082;8.816;2023-08-07T01:31:19;18.60;91.50
64888;DHT22;51386;53.082;8.816;2023-08-07T01:33:57;18.60;91.50
64888;DHT22;51386;53.082;8.816;2023-08-07T01:36:29;18.60;91.60
64888;DHT22;51386;53.082;8.816;2023-08-07T01:38:59;18.60;91.50
64888;DHT22;51386;53.082;8.816;2023-08-07T01:41:28;18.60;91.60
64888;DHT22;51386;53.082;8.816;2023-08-07T01:43:55;18.50;91.60
64888;DHT22;51386;53.082;8.816;2023-08-07T01:46:24;18.50;91.70
64888;DHT22;51386;53.082;8.816;2023-08-07T01:48:51;18.50;91.70
64888;DHT22;51386;53.082;8.816;2023-08-07T01:51:18;18.50;91.80
64888;DHT22;51386;53.082;8.816;2023-08-07T01:53:45;18.50;91.90
64888;DHT22;51386;53.082;8.816;2023-08-07T01:56:15;18.50;91.80
64888;DHT22;51386;53.082;8.816;2023-08-07T01:58:42;18.50;91.80
64888;DHT22;51386;53.082;8.816;2023-08-07T02:01:09;18.50;91.90
64888;DHT22;51386;53.082;8.816;2023-08-07T02:03:36;18.40;91.80
64888;DHT22;51386;53.082;8.816;2023-08-07T02:06:03;18.40;91.80
64888;DHT22;51386;53.082;8.816;2023-08-07T02:08:30;18.40;91.70
64888;DHT22;51386;53.082;8.816;2023-08-07T02:10:58;18.40;91.80
64888;DHT22;51386;53.082;8.816;2023-08-07T02:13:29;18.40;91.80
64888;DHT22;51386;53.082;8.816;2023-08-07T02:15:56;18.40;91.90
64888;DHT22;51386;53.082;8.816;2023-08-07T02:18:23;18.30;91.90
64888;DHT22;51386;53.082;8.816;2023-08-07T02:20:50;18.30;91.90
64888;DHT22;51386;53.082;8.816;2023-08-07T02:23:17;18.30;92.00
64888;DHT22;51386;53.082;8.816;2023-08-07T02:25:44;18.30;92.10
64888;DHT22;51386;53.082;8.816;2023-08-07T02:28:12;18.30;92.10
64888;DHT22;51386;53.082;8.816;2023-08-07T02:30:40;18.30;92.10
64888;DHT22;51386;53.082;8.816;2023-08-07T02:33:07;18.30;92.10
64888;DHT22;51386;53.082;8.816;2023-08-07T02:35:34;18.30;92.20
64888;DHT22;51386;53.082;8.816;2023-08-07T02:38:01;18.30;92.20
64888;DHT22;51386;53.082;8.816;2023-08-07T02:40:28;18.20;92.20
64888;DHT22;51386;53.082;8.816;2023-08-07T02:42:56;18.20;92.20
64888;DHT22;51386;53.082;8.816;2023-08-07T02:45:23;18.30;92.30
64888;DHT22;51386;53.082;8.816;2023-08-07T02:47:52;18.20;92.20
64888;DHT22;51386;53.082;8.816;2023-08-07T02:50:19;18.20;92.20
64888;DHT22;51386;53.082;8.816;2023-08-07T02:52:46;18.20;92.30
64888;DHT22;51386;53.082;8.816;2023-08-07T02:55:13;18.20;92.20
64888;DHT22;51386;53.082;8.816;2023-08-07T02:57:40;18.20;92.30
64888;DHT22;51386;53.082;8.816;2023-08-07T03:00:08;18.20;92.30
64888;DHT22;51386;53.082;8.816;2023-08-07T03:02:35;18.20;92.40
64888;DHT22;51386;53.082;8.816;2023-08-07T03:05:04;18.20;92.40
64888;DHT22;51386;53.082;8.816;2023-08-07T03:07:32;18.10;92.30
64888;DHT22;51386;53.082;8.816;2023-08-07T03:09:59;18.10;92.30
64888;DHT22;51386;53.082;8.816;2023-08-07T03:12:26;18.10;92.30
64888;DHT22;51386;53.082;8.816;2023-08-07T03:14:53;18.10;92.30
64888;DHT22;51386;53.082;8.816;2023-08-07T03:17:20;18.10;92.40
64888;DHT22;51386;53.082;8.816;2023-08-07T03:19:47;18.10;92.30
64888;DHT22;51386;53.082;8.816;2023-08-07T03:22:17;18.10;92.30
64888;DHT22;51386;53.082;8.816;2023-08-07T03:24:46;18.10;92.40
64888;DHT22;51386;53.082;8.816;2023-08-07T03:27:14;18.10;92.30
64888;DHT22;51386;53.082;8.816;2023-08-07T03:29:41;18.10;92.30
64888;DHT22;51386;53.082;8.816;2023-08-07T03:32:11;18.10;92.40
64888;DHT22;51386;53.082;8.816;2023-08-07T03:34:38;18.10;92.50
64888;DHT22;51386;53.082;8.816;2023-08-07T03:37:05;18.10;92.50
64888;DHT22;51386;53.082;8.816;2023-08-07T03:39:33;18.10;92.50
64888;DHT22;51386;53.082;8.816;2023-08-07T03:42:00;18.10;92.40
64888;DHT22;51386;53.082;8.816;2023-08-07T03:44:27;18.10;92.40
64888;DHT22;51386;53.082;8.816;2023-08-07T03:46:54;18.10;92.40
64888;DHT22;51386;53.082;8.816;2023-08-07T03:49:24;18.20;92.40
64888;DHT22;51386;53.082;8.816;2023-08-07T03:51:51;18.20;92.30
64888;DHT22;51386;53.082;8.816;2023-08-07T03:54:18;18.20;92.30
64888;DHT22;51386;53.082;8.816;2023-08-07T03:56:46;18.20;92.30
64888;DHT22;51386;53.082;8.816;2023-08-07T03:59:14;18.20;92.30
64888;DHT22;51386;53.082;8.816;2023-08-07T04:01:41;18.20;92.40
64888;DHT22;51386;53.082;8.816;2023-08-07T04:04:09;18.20;92.50
64888;DHT22;51386;53.082;8.816;2023-08-07T04:06:36;18.30;92.60
64888;DHT22;51386;53.082;8.816;2023-08-07T04:09:03;18.30;92.70
64888;DHT22;51386;53.082;8.816;2023-08-07T04:11:30;18.20;92.60
64888;DHT22;51386;53.082;8.816;2023-08-07T04:13:58;18.30;92.60
64888;DHT22;51386;53.082;8.816;2023-08-07T04:16:25;18.30;92.60
64888;DHT22;51386;53.082;8.816;2023-08-07T04:18:52;18.30;92.50
64888;DHT22;51386;53.082;8.816;2023-08-07T04:21:19;18.30;92.70
64888;DHT22;51386;53.082;8.816;2023-08-07T04:23:46;18.20;92.70
64888;DHT22;51386;53.082;8.816;2023-08-07T04:26:13;18.20;92.30
64888;DHT22;51386;53.082;8.816;2023-08-07T04:28:41;18.20;92.30
64888;DHT22;51386;53.082;8.816;2023-08-07T04:31:09;18.20;92.30
64888;DHT22;51386;53.082;8.816;2023-08-07T04:33:36;18.20;92.30
64888;DHT22;51386;53.082;8.816;2023-08-07T04:36:03;18.20;92.20
64888;DHT22;51386;53.082;8.816;2023-08-07T04:38:30;18.20;92.20
64888;DHT22;51386;53.082;8.816;2023-08-07T04:40:57;18.20;92.10
64888;DHT22;51386;53.082;8.816;2023-08-07T04:43:25;18.20;92.20
64888;DHT22;51386;53.082;8.816;2023-08-07T04:45:53;18.20;92.10
64888;DHT22;51386;53.082;8.816;2023-08-07T04:48:21;18.20;92.00
64888;DHT22;51386;53.082;8.816;2023-08-07T04:50:51;18.20;92.30
64888;DHT22;51386;53.082;8.816;2023-08-07T04:53:18;18.20;92.00
64888;DHT22;51386;53.082;8.816;2023-08-07T04:55:46;18.10;91.90
64888;DHT22;51386;53.082;8.816;2023-08-07T04:58:13;18.20;92.00
64888;DHT22;51386;53.082;8.816;2023-08-07T05:00:40;18.20;91.90
64888;DHT22;51386;53.082;8.816;2023-08-07T05:03:07;18.20;91.90
64888;DHT22;51386;53.082;8.816;2023-08-07T05:05:36;18.20;91.80
64888;DHT22;51386;53.082;8.816;2023-08-07T05:08:03;18.20;91.70
64888;DHT22;51386;53.082;8.816;2023-08-07T05:10:30;18.20;91.70
64888;DHT22;51386;53.082;8.816;2023-08-07T05:12:57;18.30;91.80
64888;DHT22;51386;53.082;8.816;2023-08-07T05:15:25;18.30;91.70
64888;DHT22;51386;53.082;8.816;2023-08-07T05:17:52;18.30;91.70
64888;DHT22;51386;53.082;8.816;2023-08-07T05:20:20;18.30;91.60
64888;DHT22;51386;53.082;8.816;2023-08-07T05:22:49;18.30;91.50
64888;DHT22;51386;53.082;8.816;2023-08-07T05:25:16;18.30;91.40
64888;DHT22;51386;53.082;8.816;2023-08-07T05:27:44;18.30;91.40
64888;DHT22;51386;53.082;8.816;2023-08-07T05:30:13;18.30;91.50
64888;DHT22;51386;53.082;8.816;2023-08-07T05:32:40;18.40;91.40
64888;DHT22;51386;53.082;8.816;2023-08-07T05:35:08;18.40;91.30
64888;DHT22;51386;53.082;8.816;2023-08-07T05:37:36;18.40;91.20
64888;DHT22;51386;53.082;8.816;2023-08-07T05:40:06;18.40;91.30
64888;DHT22;51386;53.082;8.816;2023-08-07T05:42:33;18.40;91.20
64888;DHT22;51386;53.082;8.816;2023-08-07T05:45:01;18.40;91.20
64888;DHT22;51386;53.082;8.816;2023-08-07T05:47:28;18.40;91.20
64888;DHT22;51386;53.082;8.816;2023-08-07T05:49:56;18.40;91.20
64888;DHT22;51386;53.082;8.816;2023-08-07T05:52:22;18.30;91.10
64888;DHT22;51386;53.082;8.816;2023-08-07T05:54:50;18.40;91.20
64888;DHT22;51386;53.082;8.816;2023-08-07T05:57:19;18.40;91.20
64888;DHT22;51386;53.082;8.816;2023-08-07T05:59:46;18.40;91.20
64888;DHT22;51386;53.082;8.816;2023-08-07T06:02:13;18.40;91.10
64888;DHT22;51386;53.082;8.816;2023-08-07T06:04:40;18.40;91.10
64888;DHT22;51386;53.082;8.816;2023-08-07T06:07:07;18.40;91.00
64888;DHT22;51386;53.082;8.816;2023-08-07T06:09:35;18.40;90.80
64888;DHT22;51386;53.082;8.816;2023-08-07T06:12:03;18.50;90.80
64888;DHT22;51386;53.082;8.816;2023-08-07T06:14:32;18.50;90.70
64888;DHT22;51386;53.082;8.816;2023-08-07T06:16:59;18.50;90.70
64888;DHT22;51386;53.082;8.816;2023-08-07T06:19:28;18.50;90.70
64888;DHT22;51386;53.082;8.816;2023-08-07T06:21:58;18.60;90.70
64888;DHT22;51386;53.082;8.816;2023-08-07T06:24:27;18.60;90.50
64888;DHT22;51386;53.082;8.816;2023-08-07T06:26:54;18.70;90.60
64888;DHT22;51386;53.082;8.816;2023-08-07T06:29:21;18.70;90.50
64888;DHT22;51386;53.082;8.816;2023-08-07T06:31:50;18.80;90.50
64888;DHT22;51386;53.082;8.816;2023-08-07T06:34:17;18.80;90.50
64888;DHT22;51386;53.082;8.816;2023-08-07T06:36:44;18.90;90.60
64888;DHT22;51386;53.082;8.816;2023-08-07T06:39:11;19.00;90.50
64888;DHT22;51386;53.082;8.816;2023-08-07T06:41:38;19.00;90.50
64888;DHT22;51386;53.082;8.816;2023-08-07T06:44:06;19.10;90.40
64888;DHT22;51386;53.082;8.816;2023-08-07T06:46:33;19.10;90.40
64888;DHT22;51386;53.082;8.816;2023-08-07T06:49:01;19.10;90.20
64888;DHT22;51386;53.082;8.816;2023-08-07T06:51:28;19.20;90.30
64888;DHT22;51386;53.082;8.816;2023-08-07T06:53:55;19.20;90.10
64888;DHT22;51386;53.082;8.816;2023-08-07T06:56:22;19.30;90.10
64888;DHT22;51386;53.082;8.816;2023-08-07T06:58:49;19.20;90.10
64888;DHT22;51386;53.082;8.816;2023-08-07T07:01:16;19.30;90.30
64888;DHT22;51386;53.082;8.816;2023-08-07T07:03:43;19.20;90.20
64888;DHT22;51386;53.082;8.816;2023-08-07T07:06:15;19.20;90.20
64888;DHT22;51386;53.082;8.816;2023-08-07T07:08:42;19.30;90.30
64888;DHT22;51386;53.082;8.816;2023-08-07T07:11:09;19.30;90.30
64888;DHT22;51386;53.082;8.816;2023-08-07T07:13:36;19.30;90.10
64888;DHT22;51386;53.082;8.816;2023-08-07T07:16:03;19.30;90.00
64888;DHT22;51386;53.082;8.816;2023-08-07T07:18:31;19.30;90.10
64888;DHT22;51386;53.082;8.816;2023-08-07T07:20:58;19.20;90.20
64888;DHT22;51386;53.082;8.816;2023-08-07T07:23:28;19.20;90.20
64888;DHT22;51386;53.082;8.816;2023-08-07T07:25:55;19.20;90.30
64888;DHT22;51386;53.082;8.816;2023-08-07T07:28:23;19.30;90.40
64888;DHT22;51386;53.082;8.816;2023-08-07T07:30:51;19.30;90.40
64888;DHT22;51386;53.082;8.816;2023-08-07T07:33:18;19.40;90.40
64888;DHT22;51386;53.082;8.816;2023-08-07T07:35:45;19.40;90.30
64888;DHT22;51386;53.082;8.816;2023-08-07T07:38:12;19.50;90.00
64888;DHT22;51386;53.082;8.816;2023-08-07T07:40:41;19.60;90.00
64888;DHT22;51386;53.082;8.816;2023-08-07T07:43:08;19.60;88.80
64888;DHT22;51386;53.082;8.816;2023-08-07T07:45:35;19.70;88.20
64888;DHT22;51386;53.082;8.816;2023-08-07T07:48:03;19.80;88.00
64888;DHT22;51386;53.082;8.816;2023-08-07T07:50:30;19.90;87.80
64888;DHT22;51386;53.082;8.816;2023-08-07T07:52:57;20.00;87.50
64888;DHT22;51386;53.082;8.816;2023-08-07T07:55:25;20.10;86.50
64888;DHT22;51386;53.082;8.816;2023-08-07T07:57:54;20.30;86.50
64888;DHT22;51386;53.082;8.816;2023-08-07T08:00:22;20.60;86.20
64888;DHT22;51386;53.082;8.816;2023-08-07T08:02:53;20.90;82.80
64888;DHT22;51386;53.082;8.816;2023-08-07T08:05:21;21.20;81.90
64888;DHT22;51386;53.082;8.816;2023-08-07T08:07:48;21.50;80.90
64888;DHT22;51386;53.082;8.816;2023-08-07T08:10:16;21.70;78.60
64888;DHT22;51386;53.082;8.816;2023-08-07T08:12:43;21.80;78.10
64888;DHT22;51386;53.082;8.816;2023-08-07T08:15:12;21.80;76.00
64888;DHT22;51386;53.082;8.816;2023-08-07T08:17:39;21.70;74.80
64888;DHT22;51386;53.082;8.816;2023-08-07T08:20:07;21.70;75.10
64888;DHT22;51386;53.082;8.816;2023-08-07T08:22:35;21.80;75.10
64888;DHT22;51386;53.082;8.816;2023-08-07T08:25:02;22.00;73.60
64888;DHT22;51386;53.082;8.816;2023-08-07T08:27:31;22.50;72.10
64888;DHT22;51386;53.082;8.816;2023-08-07T08:29:59;23.00;70.30
64888;DHT22;51386;53.082;8.816;2023-08-07T08:32:27;23.60;67.30
64888;DHT22;51386;53.082;8.816;2023-08-07T08:34:54;24.00;65.60
64888;DHT22;51386;53.082;8.816;2023-08-07T08:37:22;24.40;64.20
64888;DHT22;51386;53.082;8.816;2023-08-07T08:39:49;24.80;62.90
64888;DHT22;51386;53.082;8.816;2023-08-07T08:42:17;24.90;61.00
64888;DHT22;51386;53.082;8.816;2023-08-07T08:44:51;24.90;61.00
64888;DHT22;51386;53.082;8.816;2023-08-07T08:47:22;24.70;59.70
64888;DHT22;51386;53.082;8.816;2023-08-07T08:50:01;24.50;60.00
64888;DHT22;51386;53.082;8.816;2023-08-07T08:52:31;24.10;59.70
64888;DHT22;51386;53.082;8.816;2023-08-07T08:54:59;23.90;60.20
64888;DHT22;51386;53.082;8.816;2023-08-07T08:57:29;23.70;61.20
64888;DHT22;51386;53.082;8.816;2023-08-07T08:59:56;23.80;62.10
64888;DHT22;51386;53.082;8.816;2023-08-07T09:02:25;24.00;62.80
64888;DHT22;51386;53.082;8.816;2023-08-07T09:04:53;24.50;61.90
64888;DHT22;51386;53.082;8.816;2023-08-07T09:07:22;25.10;59.30
64888;DHT22;51386;53.082;8.816;2023-08-07T09:09:50;25.50;57.70
64888;DHT22;51386;53.082;8.816;2023-08-07T09:12:20;25.50;56.80
64888;DHT22;51386;53.082;8.816;2023-08-07T09:14:56;25.40;57.40
64888;DHT22;51386;53.082;8.816;2023-08-07T09:17:27;25.10;58.50
64888;DHT22;51386;53.082;8.816;2023-08-07T09:19:58;24.50;62.00
64888;DHT22;51386;53.082;8.816;2023-08-07T09:22:25;23.90;64.40
64888;DHT22;51386;53.082;8.816;2023-08-07T09:24:54;23.10;66.80
64888;DHT22;51386;53.082;8.816;2023-08-07T09:27:22;22.50;69.20
64888;DHT22;51386;53.082;8.816;2023-08-07T09:29:54;22.10;70.10
64888;DHT22;51386;53.082;8.816;2023-08-07T09:32:24;21.60;71.60
64888;DHT22;51386;53.082;8.816;2023-08-07T09:34:51;21.30;73.00
64888;DHT22;51386;53.082;8.816;2023-08-07T09:37:20;21.10;74.20
64888;DHT22;51386;53.082;8.816;2023-08-07T09:39:47;21.20;75.80
64888;DHT22;51386;53.082;8.816;2023-08-07T09:42:15;21.60;76.50
64888;DHT22;51386;53.082;8.816;2023-08-07T09:44:44;22.20;74.20
64888;DHT22;51386;53.082;8.816;2023-08-07T09:47:14;22.90;72.20
64888;DHT22;51386;53.082;8.816;2023-08-07T09:49:55;23.60;68.10
64888;DHT22;51386;53.082;8.816;2023-08-07T09:52:24;24.40;66.20
64888;DHT22;51386;53.082;8.816;2023-08-07T09:54:56;25.10;62.20
64888;DHT22;51386;53.082;8.816;2023-08-07T09:57:25;25.70;60.00
64888;DHT22;51386;53.082;8.816;2023-08-07T09:59:54;26.20;58.70
64888;DHT22;51386;53.082;8.816;2023-08-07T10:02:21;26.60;55.80
64888;DHT22;51386;53.082;8.816;2023-08-07T10:04:49;26.90;53.40
64888;DHT22;51386;53.082;8.816;2023-08-07T10:07:17;26.80;51.30
64888;DHT22;51386;53.082;8.816;2023-08-07T10:09:46;26.70;50.60
64888;DHT22;51386;53.082;8.816;2023-08-07T10:12:14;26.30;49.50
64888;DHT22;51386;53.082;8.816;2023-08-07T10:14:43;25.70;48.50
64888;DHT22;51386;53.082;8.816;2023-08-07T10:17:12;25.20;49.80
64888;DHT22;51386;53.082;8.816;2023-08-07T10:19:40;24.70;50.60
64888;DHT22;51386;53.082;8.816;2023-08-07T10:22:07;24.30;51.40
64888;DHT22;51386;53.082;8.816;2023-08-07T10:24:36;23.70;52.50
64888;DHT22;51386;53.082;8.816;2023-08-07T10:27:11;23.40;54.20
64888;DHT22;51386;53.082;8.816;2023-08-07T10:29:42;23.10;55.80
64888;DHT22;51386;53.082;8.816;2023-08-07T10:32:11;23.10;57.00
64888;DHT22;51386;53.082;8.816;2023-08-07T10:34:39;23.10;57.60
64888;DHT22;51386;53.082;8.816;2023-08-07T10:37:06;23.10;56.50
64888;DHT22;51386;53.082;8.816;2023-08-07T10:40:02;23.10;56.20
64888;DHT22;51386;53.082;8.816;2023-08-07T10:42:58;23.20;56.30
64888;DHT22;51386;53.082;8.816;2023-08-07T10:45:29;23.00;56.50
64888;DHT22;51386;53.082;8.816;2023-08-07T10:48:05;22.90;57.10
64888;DHT22;51386;53.082;8.816;2023-08-07T10:50:34;22.80;59.00
64888;DHT22;51386;53.082;8.816;2023-08-07T10:53:02;22.50;61.50
64888;DHT22;51386;53.082;8.816;2023-08-07T10:55:43;22.30;62.60
64888;DHT22;51386;53.082;8.816;2023-08-07T10:58:23;22.20;64.60
64888;DHT22;51386;53.082;8.816;2023-08-07T11:03:52;21.80;66.30
64888;DHT22;51386;53.082;8.816;2023-08-07T11:06:23;21.50;68.80
64888;DHT22;51386;53.082;8.816;2023-08-07T11:08:53;21.40;69.20
64888;DHT22;51386;53.082;8.816;2023-08-07T11:11:20;21.20;70.00
64888;DHT22;51386;53.082;8.816;2023-08-07T11:13:49;21.10;69.90
64888;DHT22;51386;53.082;8.816;2023-08-07T11:16:17;21.10;69.00
64888;DHT22;51386;53.082;8.816;2023-08-07T11:18:49;21.10;68.60
64888;DHT22;51386;53.082;8.816;2023-08-07T11:21:18;21.20;68.30
64888;DHT22;51386;53.082;8.816;2023-08-07T11:23:55;21.30;67.10
64888;DHT22;51386;53.082;8.816;2023-08-07T11:26:22;21.30;66.20
64888;DHT22;51386;53.082;8.816;2023-08-07T11:28:53;21.20;65.80
64888;DHT22;51386;53.082;8.816;2023-08-07T11:31:24;21.30;65.90
64888;DHT22;51386;53.082;8.816;2023-08-07T11:33:53;21.40;66.00
64888;DHT22;51386;53.082;8.816;2023-08-07T11:36:22;21.40;65.00
64888;DHT22;51386;53.082;8.816;2023-08-07T11:38:50;21.50;65.70
64888;DHT22;51386;53.082;8.816;2023-08-07T11:41:18;21.50;65.80
64888;DHT22;51386;53.082;8.816;2023-08-07T11:43:46;21.70;65.40
64888;DHT22;51386;53.082;8.816;2023-08-07T11:46:16;21.70;63.60
64888;DHT22;51386;53.082;8.816;2023-08-07T11:48:44;21.70;62.30
64888;DHT22;51386;53.082;8.816;2023-08-07T11:51:11;21.80;62.50
64888;DHT22;51386;53.082;8.816;2023-08-07T11:53:40;21.80;62.40
64888;DHT22;51386;53.082;8.816;2023-08-07T11:56:10;21.80;62.10
64888;DHT22;51386;53.082;8.816;2023-08-07T11:58:39;21.90;62.00
64888;DHT22;51386;53.082;8.816;2023-08-07T12:01:10;22.00;61.20
64888;DHT22;51386;53.082;8.816;2023-08-07T12:03:42;22.00;60.10
64888;DHT22;51386;53.082;8.816;2023-08-07T12:06:18;22.10;59.10
64888;DHT22;51386;53.082;8.816;2023-08-07T12:08:47;22.20;58.20
64888;DHT22;51386;53.082;8.816;2023-08-07T12:11:15;22.30;57.60
64888;DHT22;51386;53.082;8.816;2023-08-07T12:13:44;22.20;56.80
64888;DHT22;51386;53.082;8.816;2023-08-07T12:16:13;22.30;57.50
64888;DHT22;51386;53.082;8.816;2023-08-07T12:18:48;22.30;56.50
64888;DHT22;51386;53.082;8.816;2023-08-07T12:21:17;22.30;56.40
64888;DHT22;51386;53.082;8.816;2023-08-07T12:23:51;22.30;57.10
64888;DHT22;51386;53.082;8.816;2023-08-07T12:26:21;22.30;57.60
64888;DHT22;51386;53.082;8.816;2023-08-07T12:28:49;22.20;58.30
64888;DHT22;51386;53.082;8.816;2023-08-07T12:31:17;22.10;57.70
64888;DHT22;51386;53.082;8.816;2023-08-07T12:33:46;21.90;58.40
64888;DHT22;51386;53.082;8.816;2023-08-07T12:36:14;21.70;58.90
64888;DHT22;51386;53.082;8.816;2023-08-07T12:38:46;21.60;59.50
64888;DHT22;51386;53.082;8.816;2023-08-07T12:41:14;21.60;59.90
64888;DHT22;51386;53.082;8.816;2023-08-07T12:43:44;21.50;59.80
64888;DHT22;51386;53.082;8.816;2023-08-07T12:46:11;21.50;59.80
64888;DHT22;51386;53.082;8.816;2023-08-07T12:48:41;21.60;59.90
64888;DHT22;51386;53.082;8.816;2023-08-07T12:51:10;21.60;60.40
64888;DHT22;51386;53.082;8.816;2023-08-07T12:53:37;21.70;59.90
64888;DHT22;51386;53.082;8.816;2023-08-07T12:56:04;21.70;60.10
64888;DHT22;51386;53.082;8.816;2023-08-07T12:58:32;21.60;59.90
64888;DHT22;51386;53.082;8.816;2023-08-07T13:00:59;21.70;60.90
64888;DHT22;51386;53.082;8.816;2023-08-07T13:03:26;21.70;61.60
64888;DHT22;51386;53.082;8.816;2023-08-07T13:05:54;21.80;61.40
64888;DHT22;51386;53.082;8.816;2023-08-07T13:08:22;21.80;59.50
64888;DHT22;51386;53.082;8.816;2023-08-07T13:10:49;21.80;58.60
64888;DHT22;51386;53.082;8.816;2023-08-07T13:13:16;21.80;59.10
64888;DHT22;51386;53.082;8.816;2023-08-07T13:15:43;21.80;59.10
64888;DHT22;51386;53.082;8.816;2023-08-07T13:18:10;21.90;59.20
64888;DHT22;51386;53.082;8.816;2023-08-07T13:20:38;21.80;59.20
64888;DHT22;51386;53.082;8.816;2023-08-07T13:23:05;21.80;59.70
64888;DHT22;51386;53.082;8.816;2023-08-07T13:25:34;21.80;59.10
64888;DHT22;51386;53.082;8.816;2023-08-07T13:28:03;21.80;59.30
64888;DHT22;51386;53.082;8.816;2023-08-07T13:30:33;21.80;59.80
64888;DHT22;51386;53.082;8.816;2023-08-07T13:33:03;21.90;59.50
64888;DHT22;51386;53.082;8.816;2023-08-07T13:35:31;22.00;59.20
64888;DHT22;51386;53.082;8.816;2023-08-07T13:38:00;22.00;57.30
64888;DHT22;51386;53.082;8.816;2023-08-07T13:40:32;22.00;56.80
64888;DHT22;51386;53.082;8.816;2023-08-07T13:43:00;22.00;56.50
64888;DHT22;51386;53.082;8.816;2023-08-07T13:45:34;22.00;57.20
64888;DHT22;51386;53.082;8.816;2023-08-07T13:48:01;22.00;57.20
64888;DHT22;51386;53.082;8.816;2023-08-07T13:50:29;22.00;57.50
64888;DHT22;51386;53.082;8.816;2023-08-07T13:52:56;22.00;55.80
64888;DHT22;51386;53.082;8.816;2023-08-07T13:55:39;21.90;55.70
64888;DHT22;51386;53.082;8.816;2023-08-07T13:58:08;21.90;55.30
64888;DHT22;51386;53.082;8.816;2023-08-07T14:00:36;21.70;55.20
64888;DHT22;51386;53.082;8.816;2023-08-07T14:03:04;21.80;55.50
64888;DHT22;51386;53.082;8.816;2023-08-07T14:05:31;21.70;55.40
64888;DHT22;51386;53.082;8.816;2023-08-07T14:07:58;21.70;55.70
64888;DHT22;51386;53.082;8.816;2023-08-07T14:10:25;21.80;56.20
64888;DHT22;51386;53.082;8.816;2023-08-07T14:12:52;21.80;56.30
64888;DHT22;51386;53.082;8.816;2023-08-07T14:15:21;21.70;56.20
64888;DHT22;51386;53.082;8.816;2023-08-07T14:17:48;21.60;56.30
64888;DHT22;51386;53.082;8.816;2023-08-07T14:20:21;21.60;56.80
64888;DHT22;51386;53.082;8.816;2023-08-07T14:22:48;21.50;57.40
64888;DHT22;51386;53.082;8.816;2023-08-07T14:25:16;21.50;58.00
64888;DHT22;51386;53.082;8.816;2023-08-07T14:27:43;21.40;58.90
64888;DHT22;51386;53.082;8.816;2023-08-07T14:30:11;21.40;59.60
64888;DHT22;51386;53.082;8.816;2023-08-07T14:32:39;21.40;60.70
64888;DHT22;51386;53.082;8.816;2023-08-07T14:35:08;21.40;60.60
64888;DHT22;51386;53.082;8.816;2023-08-07T14:37:35;21.40;61.00
64888;DHT22;51386;53.082;8.816;2023-08-07T14:40:03;21.40;60.70
64888;DHT22;51386;53.082;8.816;2023-08-07T14:42:30;21.40;60.40
64888;DHT22;51386;53.082;8.816;2023-08-07T14:44:57;21.40;60.30
64888;DHT22;51386;53.082;8.816;2023-08-07T14:47:25;21.40;60.50
64888;DHT22;51386;53.082;8.816;2023-08-07T14:49:53;21.40;60.30
64888;DHT22;51386;53.082;8.816;2023-08-07T14:52:21;21.50;60.50
64888;DHT22;51386;53.082;8.816;2023-08-07T14:54:48;21.50;60.60
64888;DHT22;51386;53.082;8.816;2023-08-07T14:57:15;21.60;61.10
64888;DHT22;51386;53.082;8.816;2023-08-07T14:59:42;21.50;59.90
64888;DHT22;51386;53.082;8.816;2023-08-07T15:02:09;21.50;60.50
64888;DHT22;51386;53.082;8.816;2023-08-07T15:04:36;21.60;61.20
64888;DHT22;51386;53.082;8.816;2023-08-07T15:07:05;21.60;60.20
64888;DHT22;51386;53.082;8.816;2023-08-07T15:09:32;21.70;60.20
64888;DHT22;51386;53.082;8.816;2023-08-07T15:11:59;21.70;59.80
64888;DHT22;51386;53.082;8.816;2023-08-07T15:14:27;21.80;59.60
64888;DHT22;51386;53.082;8.816;2023-08-07T15:16:54;21.80;58.80
64888;DHT22;51386;53.082;8.816;2023-08-07T15:19:21;21.80;57.80
64888;DHT22;51386;53.082;8.816;2023-08-07T15:21:50;21.80;57.20
64888;DHT22;51386;53.082;8.816;2023-08-07T15:24:18;21.80;56.10
64888;DHT22;51386;53.082;8.816;2023-08-07T15:26:46;21.80;55.70
64888;DHT22;51386;53.082;8.816;2023-08-07T15:29:13;21.80;55.60
64888;DHT22;51386;53.082;8.816;2023-08-07T15:31:40;21.80;56.50
64888;DHT22;51386;53.082;8.816;2023-08-07T15:34:08;21.60;62.30
64888;DHT22;51386;53.082;8.816;2023-08-07T15:36:35;21.40;64.10
64888;DHT22;51386;53.082;8.816;2023-08-07T15:39:03;21.00;64.30
64888;DHT22;51386;53.082;8.816;2023-08-07T15:41:31;20.80;66.10